Time;durP1;ratioP1;P1;durP2;ratioP2;P2;SDS_P1;SDS_P2;PMS_P1;PMS_P2;Temp;Humidity;BMP_temperature;BMP_pressure;BME280_temperature;BME280_humidity;BME280_pressure;Samples;Min_cycle;Max_cycle;Signal;HPM_P1;HPM_P2
2021/05/19 00:00:09;;;;;;;2.65;1.63;;;;;;;10.99;100.00;100542.00;5053164;28;20043;-68
2021/05/19 00:02:53;;;;;;;2.95;1.90;;;;;;;10.92;100.00;100545.34;5054042;28;20093;-68
2021/05/19 00:05:39;;;;;;;4.40;1.83;;;;;;;10.84;100.00;100548.72;5053081;28;20098;-68
2021/05/19 00:08:23;;;;;;;3.63;1.70;;;;;;;10.80;100.00;100551.81;5053025;28;20052;-67
2021/05/19 00:11:08;;;;;;;2.80;1.30;;;;;;;10.73;100.00;100551.53;5052586;28;20036;-68
2021/05/19 00:13:52;;;;;;;2.75;2.08;;;;;;;10.76;100.00;100553.06;5038864;28;20099;-67
2021/05/19 00:16:36;;;;;;;;;;;;;;;10.79;100.00;100545.66;5053546;28;20140;-66
2021/05/19 00:19:20;;;;;;;2.45;1.77;;;;;;;10.79;100.00;100548.31;5053688;28;19919;-67
2021/05/19 00:22:04;;;;;;;3.80;2.00;;;;;;;10.79;100.00;100536.78;5052693;28;20048;-68
2021/05/19 00:24:47;;;;;;;2.53;2.00;;;;;;;10.74;100.00;100537.19;5053589;28;20047;-67
2021/05/19 00:27:32;;;;;;;;;;;;;;;10.69;100.00;100542.13;5039072;28;20056;-67
2021/05/19 00:30:19;;;;;;;2.33;1.90;;;;;;;10.64;100.00;100539.00;5052362;28;20420;-67
2021/05/19 00:33:04;;;;;;;4.32;1.70;;;;;;;10.64;100.00;100535.53;5052366;28;20098;-67
2021/05/19 00:35:49;;;;;;;2.33;1.80;;;;;;;10.64;100.00;100547.00;5038412;28;20048;-67
2021/05/19 00:38:32;;;;;;;5.05;2.00;;;;;;;10.65;100.00;100537.19;5053863;28;20079;-67
2021/05/19 00:41:16;;;;;;;4.47;1.77;;;;;;;10.65;100.00;100543.34;5053424;28;20469;-67
2021/05/19 00:44:08;;;;;;;3.53;1.77;;;;;;;10.66;100.00;100539.72;5038413;28;20563;-67
2021/05/19 00:46:52;;;;;;;2.35;1.60;;;;;;;10.61;100.00;100533.97;5053521;28;20044;-68
2021/05/19 00:49:36;;;;;;;3.92;1.77;;;;;;;10.61;100.00;100536.63;5038314;28;20063;-67
2021/05/19 00:52:20;;;;;;;4.20;1.58;;;;;;;10.57;100.00;100534.38;5051968;28;20044;-67
2021/05/19 00:55:06;;;;;;;2.03;1.73;;;;;;;10.51;100.00;100525.09;5053407;28;20051;-67
2021/05/19 00:57:51;;;;;;;2.80;1.50;;;;;;;10.43;100.00;100524.94;5052361;28;20048;-67
2021/05/19 01:00:36;;;;;;;2.30;1.80;;;;;;;10.43;100.00;100530.28;5052261;28;20099;-66
2021/05/19 01:03:19;;;;;;;;;;;;;;;10.38;100.00;100526.34;5052468;28;20047;-67
2021/05/19 01:06:08;;;;;;;2.10;1.47;;;;;;;10.36;100.00;100531.78;5052344;28;19967;-68
2021/05/19 01:11:55;;;;;;;2.22;1.83;;;;;;;10.25;100.00;100526.56;5057001;28;20071;-67
2021/05/19 01:14:40;;;;;;;4.15;1.88;;;;;;;10.23;100.00;100520.53;5057008;28;20047;-68
2021/05/19 01:17:24;;;;;;;4.03;1.80;;;;;;;10.20;100.00;100529.81;5056273;28;20505;-68
2021/05/19 01:20:09;;;;;;;2.60;1.67;;;;;;;10.10;100.00;100519.09;5042124;28;20044;-68
2021/05/19 01:22:52;;;;;;;3.20;1.73;;;;;;;10.05;100.00;100520.47;5057358;28;20505;-68
2021/05/19 01:25:37;;;;;;;3.38;1.50;;;;;;;10.03;100.00;100533.09;5042024;28;20055;-67
2021/05/19 01:28:21;;;;;;;2.42;1.67;;;;;;;9.97;100.00;100528.28;5055785;28;20047;-67
2021/05/19 01:31:08;;;;;;;3.28;1.90;;;;;;;9.95;100.00;100524.88;5056077;28;20043;-67
2021/05/19 01:33:52;;;;;;;2.53;1.73;;;;;;;9.89;100.00;100530.78;5055914;28;20528;-67
2021/05/19 01:36:36;;;;;;;2.17;1.98;;;;;;;9.86;100.00;100525.69;5041825;28;20051;-67
2021/05/19 01:39:20;;;;;;;3.42;2.30;;;;;;;9.80;100.00;100531.56;5055801;28;20056;-68
2021/05/19 01:42:05;;;;;;;2.67;1.73;;;;;;;9.77;100.00;100531.84;5055774;28;20095;-68
2021/05/19 01:44:50;;;;;;;3.85;1.90;;;;;;;9.72;100.00;100534.03;5055480;28;20052;-68
2021/05/19 01:47:48;;;;;;;3.08;1.88;;;;;;;9.69;100.00;100534.31;5056902;28;20047;-67
2021/05/19 01:50:33;;;;;;;2.95;1.77;;;;;;;9.63;100.00;100529.50;5055278;28;20094;-67
2021/05/19 01:53:17;;;;;;;2.00;1.70;;;;;;;9.62;100.00;100526.03;5041188;28;20110;-67
2021/05/19 01:56:01;;;;;;;4.15;2.05;;;;;;;9.61;100.00;100531.47;5041653;28;20083;-64
2021/05/19 01:58:45;;;;;;;2.30;1.65;;;;;;;9.58;100.00;100539.72;5041160;28;20124;-67
2021/05/19 02:01:29;;;;;;;2.17;1.80;;;;;;;9.59;100.00;100528.91;5055095;28;20087;-67
2021/05/19 02:04:15;;;;;;;3.47;1.85;;;;;;;9.53;100.00;100539.25;5055404;28;20048;-68
2021/05/19 02:07:00;;;;;;;2.38;2.00;;;;;;;9.53;100.00;100532.13;5055349;28;20055;-68
2021/05/19 02:09:44;;;;;;;5.25;2.35;;;;;;;9.53;100.00;100533.94;5041240;28;20131;-68
2021/05/19 02:12:28;;;;;;;4.07;2.15;;;;;;;9.48;100.00;100539.66;5055117;28;20509;-68
2021/05/19 02:15:12;;;;;;;3.35;2.08;;;;;;;9.52;100.00;100538.44;5054945;28;20059;-68
2021/05/19 02:17:58;;;;;;;4.07;2.05;;;;;;;9.53;100.00;100536.59;5054832;28;20056;-68
2021/05/19 02:20:42;;;;;;;5.78;2.45;;;;;;;9.54;100.00;100541.78;5053979;28;20087;-68
2021/05/19 02:23:26;;;;;;;4.47;2.10;;;;;;;9.60;100.00;100551.06;5040826;28;20136;-68
2021/05/19 02:26:10;;;;;;;3.55;2.75;;;;;;;9.66;100.00;100550.53;5041167;28;20095;-68
2021/05/19 02:28:54;;;;;;;2.80;2.47;;;;;;;9.65;100.00;100554.16;5054945;28;20047;-67
2021/05/19 02:31:38;;;;;;;3.50;2.50;;;;;;;9.67;100.00;100552.25;5054536;28;20137;-67
2021/05/19 02:34:22;;;;;;;4.07;2.20;;;;;;;9.70;100.00;100568.78;5054558;28;20502;-67
2021/05/19 02:37:06;;;;;;;2.50;2.30;;;;;;;9.64;100.00;100561.31;5054771;28;20052;-66
2021/05/19 02:39:50;;;;;;;4.25;2.47;;;;;;;9.64;100.00;100557.81;5054689;28;20079;-67
2021/05/19 02:42:34;;;;;;;3.55;2.88;;;;;;;9.59;100.00;100555.53;5054367;28;20051;-67
2021/05/19 02:45:18;;;;;;;3.05;2.42;;;;;;;9.57;100.00;100551.34;5040571;28;20095;-67
2021/05/19 02:48:02;;;;;;;6.28;2.58;;;;;;;9.54;100.00;100552.44;5055311;28;20568;-68
2021/05/19 02:50:46;;;;;;;3.67;2.78;;;;;;;9.57;100.00;100551.34;5040551;28;20048;-68
2021/05/19 02:53:30;;;;;;;2.88;2.13;;;;;;;9.56;100.00;100550.50;5061862;22;20060;-69
2021/05/19 02:56:14;;;;;;;3.35;2.70;;;;;;;9.54;100.00;100557.75;5034263;28;20052;-69
2021/05/19 02:58:58;;;;;;;3.88;3.03;;;;;;;9.53;100.00;100549.91;5020178;28;20052;-69
2021/05/19 03:01:42;;;;;;;4.90;3.08;;;;;;;9.49;100.00;100559.97;5034353;28;20048;-69
2021/05/19 03:04:26;;;;;;;;;;;;;;;9.47;100.00;100561.09;5034722;28;20170;-69
2021/05/19 03:07:10;;;;;;;3.40;2.80;;;;;;;9.46;100.00;100562.06;5033998;28;19963;-69
2021/05/19 03:09:54;;;;;;;5.32;2.72;;;;;;;9.45;100.00;100555.03;5035236;28;20072;-69
2021/05/19 03:12:38;;;;;;;4.65;3.42;;;;;;;9.44;100.00;100556.00;5019957;28;20048;-69
2021/05/19 03:15:23;;;;;;;5.25;2.83;;;;;;;9.45;100.00;100561.19;5034198;28;20414;-69
2021/05/19 03:18:07;;;;;;;7.40;3.67;;;;;;;9.49;100.00;100559.13;5033758;28;20060;-69
2021/05/19 03:20:50;;;;;;;4.63;3.22;;;;;;;9.47;100.00;100558.44;5034015;28;20076;-68
2021/05/19 03:23:34;;;;;;;6.05;3.70;;;;;;;9.50;100.00;100564.31;5033902;28;20406;-69
2021/05/19 03:26:19;;;;;;;4.55;3.17;;;;;;;9.46;100.00;100575.38;5033677;28;20047;-69
2021/05/19 03:29:04;;;;;;;6.32;3.72;;;;;;;9.43;100.00;100575.59;5033840;28;20096;-69
2021/05/19 03:31:47;;;;;;;6.35;3.83;;;;;;;9.40;100.00;100582.03;5033160;28;20053;-69
2021/05/19 03:34:31;;;;;;;5.30;3.78;;;;;;;9.37;100.00;100582.28;5033687;28;20052;-69
2021/05/19 03:37:15;;;;;;;6.55;4.15;;;;;;;9.37;100.00;100586.78;5033420;28;20048;-69
2021/05/19 03:40:00;;;;;;;8.73;4.25;;;;;;;9.29;100.00;100584.75;5019641;28;20095;-69
2021/05/19 03:42:44;;;;;;;7.18;4.55;;;;;;;9.29;100.00;100583.91;5033352;28;20045;-69
2021/05/19 03:45:29;;;;;;;4.43;3.90;;;;;;;9.24;100.00;100592.28;5033765;28;20055;-69
2021/05/19 03:48:12;;;;;;;6.18;4.07;;;;;;;9.23;100.00;100600.38;5033475;28;20048;-69
2021/05/19 03:50:56;;;;;;;7.45;3.97;;;;;;;9.21;100.00;100589.88;5033521;28;20191;-69
2021/05/19 03:53:40;;;;;;;8.52;3.90;;;;;;;9.16;100.00;100599.22;5033930;28;20175;-69
2021/05/19 03:56:25;;;;;;;8.48;4.47;;;;;;;9.16;100.00;100599.22;5033304;28;20128;-69
2021/05/19 03:59:09;;;;;;;9.98;4.57;;;;;;;9.14;100.00;100606.47;5019039;28;20103;-70
2021/05/19 04:01:53;;;;;;;5.70;3.55;;;;;;;9.14;100.00;100606.47;5033244;28;20121;-69
2021/05/19 04:04:36;;;;;;;5.30;4.07;;;;;;;9.15;100.00;100621.47;5033222;28;20099;-69
2021/05/19 04:07:20;;;;;;;10.52;4.10;;;;;;;9.15;100.00;100613.50;5033125;28;20457;-69
2021/05/19 04:10:04;;;;;;;9.02;4.47;;;;;;;9.21;100.00;100615.63;5033105;28;20430;-69
2021/05/19 04:12:50;;;;;;;4.85;3.05;;;;;;;9.26;100.00;100616.09;5032875;28;20045;-69
2021/05/19 04:15:35;;;;;;;6.68;3.60;;;;;;;9.30;100.00;100613.06;5032803;28;20048;-69
2021/05/19 04:18:21;;;;;;;7.07;4.40;;;;;;;9.31;100.00;100614.75;5032915;28;20048;-69
2021/05/19 04:21:06;;;;;;;4.50;3.58;;;;;;;9.35;100.00;100625.94;5032664;28;20040;-69
2021/05/19 04:23:50;;;;;;;5.35;3.70;;;;;;;9.39;100.00;100633.56;5032720;28;20048;-68
2021/05/19 04:26:34;;;;;;;5.10;3.67;;;;;;;9.40;100.00;100634.41;5033905;28;20048;-69
2021/05/19 04:29:18;;;;;;;6.68;4.00;;;;;;;9.48;100.00;100631.97;5033142;28;20500;-70
2021/05/19 04:32:02;;;;;;;6.38;3.58;;;;;;;9.47;100.00;100632.94;5018594;28;20048;-70
2021/05/19 04:34:46;;;;;;;5.30;4.18;;;;;;;9.50;100.00;100630.84;5018549;28;20048;-69
2021/05/19 04:37:30;;;;;;;6.43;3.55;;;;;;;9.49;100.00;100631.00;5033746;28;20076;-70
2021/05/19 04:40:14;;;;;;;7.93;4.35;;;;;;;9.53;100.00;100629.75;5032675;28;20045;-69
2021/05/19 04:43:04;;;;;;;5.80;4.10;;;;;;;9.57;100.00;100626.69;5031775;28;20060;-69
2021/05/19 04:45:48;;;;;;;7.25;4.00;;;;;;;9.58;100.00;100627.56;5032602;28;20405;-69
2021/05/19 04:48:32;;;;;;;6.90;4.10;;;;;;;9.54;100.00;100636.75;5032524;28;20106;-69
2021/05/19 04:51:16;;;;;;;5.68;3.75;;;;;;;9.56;100.00;100640.16;5032251;28;20422;-69
2021/05/19 04:54:00;;;;;;;8.15;4.78;;;;;;;9.59;100.00;100638.06;5032143;28;20084;-70
2021/05/19 04:56:44;;;;;;;8.40;3.97;;;;;;;9.64;100.00;100643.00;5018282;28;20047;-69
2021/05/19 04:59:28;;;;;;;5.05;3.47;;;;;;;9.66;100.00;100644.56;5018489;28;20465;-69
2021/05/19 05:02:12;;;;;;;8.40;3.63;;;;;;;9.74;100.00;100643.91;5032184;28;20040;-70
2021/05/19 05:04:56;;;;;;;5.82;4.00;;;;;;;9.70;100.00;100653.13;5032347;28;20051;-69
2021/05/19 05:07:41;;;;;;;6.57;4.40;;;;;;;9.75;100.00;100658.91;5033253;28;20415;-69
2021/05/19 05:10:25;;;;;;;7.13;4.47;;;;;;;9.80;100.00;100662.03;5033080;28;20098;-69
2021/05/19 05:13:09;;;;;;;5.70;4.10;;;;;;;9.83;100.00;100664.44;5032318;28;20055;-69
2021/05/19 05:15:53;;;;;;;11.05;4.32;;;;;;;9.90;100.00;100673.59;5033144;28;20052;-69
2021/05/19 05:18:38;;;;;;;11.50;3.45;;;;;;;9.97;100.00;100672.94;5033000;28;20068;-69
2021/05/19 05:21:23;;;;;;;7.00;4.22;;;;;;;10.02;100.00;100681.44;5032506;28;20556;-69
2021/05/19 05:24:07;;;;;;;5.80;3.83;;;;;;;10.11;100.00;100677.13;5032523;28;20060;-69
2021/05/19 05:26:51;;;;;;;5.90;4.05;;;;;;;10.17;100.00;100679.25;5033067;28;20115;-68
2021/05/19 05:29:35;;;;;;;5.38;3.80;;;;;;;10.10;100.00;100678.94;5032191;28;20052;-69
2021/05/19 05:32:19;;;;;;;10.90;4.40;;;;;;;10.22;100.00;100675.25;5032782;28;20418;-69
2021/05/19 05:35:03;;;;;;;5.70;4.07;;;;;;;10.21;100.00;100670.03;5017849;28;20080;-69
2021/05/19 05:37:47;;;;;;;7.07;4.25;;;;;;;10.21;100.00;100668.19;5017814;28;20055;-69
2021/05/19 05:40:31;;;;;;;5.93;4.03;;;;;;;10.23;100.00;100670.75;5032025;28;20068;-69
2021/05/19 05:43:15;;;;;;;6.05;4.35;;;;;;;10.30;100.00;100673.59;5032823;28;20142;-69
2021/05/19 05:45:59;;;;;;;8.80;4.60;;;;;;;10.40;100.00;100682.47;5018052;28;20560;-70
2021/05/19 05:48:44;;;;;;;9.07;4.82;;;;;;;10.39;100.00;100682.59;5017753;28;20058;-69
2021/05/19 05:51:28;;;;;;;6.65;4.32;;;;;;;10.36;100.00;100686.38;5031727;28;20056;-69
2021/05/19 05:54:12;;;;;;;6.22;4.28;;;;;;;10.32;100.00;100684.09;5032186;28;20099;-69
2021/05/19 05:56:57;;;;;;;5.05;4.18;;;;;;;10.28;100.00;100691.53;5035558;28;20142;-69
2021/05/19 05:59:41;;;;;;;6.07;4.60;;;;;;;10.23;100.00;100699.06;5035549;28;20052;-69
2021/05/19 06:02:25;;;;;;;8.52;4.68;;;;;;;10.24;100.00;100690.09;5021280;28;20052;-69
2021/05/19 06:05:10;;;;;;;8.18;4.68;;;;;;;10.26;100.00;100685.47;5021209;28;20540;-69
2021/05/19 06:07:55;;;;;;;6.47;4.13;;;;;;;10.28;100.00;100688.88;5035660;28;20096;-69
2021/05/19 06:10:38;;;;;;;11.50;5.07;;;;;;;10.34;100.00;100698.97;5034954;28;20052;-69
2021/05/19 06:13:23;;;;;;;6.18;4.57;;;;;;;10.36;100.00;100691.69;5035012;28;20056;-69
2021/05/19 06:16:06;;;;;;;6.05;4.72;;;;;;;10.49;100.00;100692.34;5036300;28;20068;-67
2021/05/19 06:18:50;;;;;;;7.57;4.25;;;;;;;10.56;100.00;100693.47;5021391;28;20114;-70
2021/05/19 06:21:34;;;;;;;7.32;4.43;;;;;;;10.54;100.00;100706.09;5036178;28;20048;-69
2021/05/19 06:24:19;;;;;;;6.80;4.50;;;;;;;10.63;100.00;100704.47;5034850;28;20075;-69
2021/05/19 06:27:03;;;;;;;7.68;4.00;;;;;;;10.59;100.00;100703.88;5035029;28;20051;-70
2021/05/19 06:29:48;;;;;;;7.55;3.95;;;;;;;10.61;100.00;100709.06;5021217;28;20100;-69
2021/05/19 06:32:32;;;;;;;6.78;4.80;;;;;;;10.67;100.00;100700.56;5034867;28;20134;-69
2021/05/19 06:35:16;;;;;;;7.53;4.68;;;;;;;10.70;100.00;100709.13;5034648;28;20048;-70
2021/05/19 06:38:00;;;;;;;6.93;5.22;;;;;;;10.70;100.00;100701.13;5034877;28;20079;-69
2021/05/19 06:40:44;;;;;;;7.00;4.70;;;;;;;10.81;100.00;100703.69;5020596;28;20107;-69
2021/05/19 06:43:28;;;;;;;8.25;5.15;;;;;;;10.99;100.00;100703.88;5034602;28;20560;-69
2021/05/19 06:46:12;;;;;;;6.60;4.38;;;;;;;11.30;100.00;100701.00;5020963;28;20051;-69
2021/05/19 06:49:02;;;;;;;6.30;4.80;;;;;;;11.39;99.77;100710.81;5034694;28;20476;-69
2021/05/19 06:51:47;;;;;;;8.30;5.20;;;;;;;11.41;98.97;100708.88;5034278;28;20520;-70
2021/05/19 06:54:31;;;;;;;5.97;4.03;;;;;;;11.47;97.88;100705.66;5020338;28;20124;-69
2021/05/19 06:57:15;;;;;;;8.55;4.90;;;;;;;11.52;99.26;100706.09;5034508;28;20053;-67
2021/05/19 06:59:59;;;;;;;6.40;4.85;;;;;;;11.55;97.13;100710.28;5020336;28;20136;-69
2021/05/19 07:02:43;;;;;;;6.93;5.30;;;;;;;11.93;95.94;100710.31;5035276;28;20125;-68
2021/05/19 07:05:27;;;;;;;8.25;4.55;;;;;;;11.95;90.84;100719.88;5034253;28;20084;-69
2021/05/19 07:08:10;;;;;;;6.95;4.68;;;;;;;11.98;91.62;100708.91;5034936;28;20489;-70
2021/05/19 07:10:54;;;;;;;7.03;4.50;;;;;;;12.25;92.13;100716.16;5035257;28;20052;-69
2021/05/19 07:13:39;;;;;;;5.90;4.32;;;;;;;12.28;87.24;100722.06;5034064;28;20057;-69
2021/05/19 07:16:24;;;;;;;6.28;4.43;;;;;;;11.98;89.08;100724.94;5020088;28;20116;-69
2021/05/19 07:19:08;;;;;;;6.57;4.78;;;;;;;11.94;88.24;100734.22;5034021;28;20084;-69
2021/05/19 07:21:52;;;;;;;6.05;4.88;;;;;;;12.04;87.96;100729.72;5033879;28;20048;-69
2021/05/19 07:24:37;;;;;;;7.45;5.30;;;;;;;11.91;88.79;100729.19;5034036;28;20099;-69
2021/05/19 07:27:21;;;;;;;8.68;4.88;;;;;;;12.19;89.08;100728.28;5033646;28;20083;-69
2021/05/19 07:30:05;;;;;;;9.30;5.32;;;;;;;12.26;87.32;100744.59;5033612;28;20044;-69
2021/05/19 07:32:50;;;;;;;7.20;5.10;;;;;;;12.28;87.54;100732.78;5033446;28;20048;-70
2021/05/19 07:35:34;;;;;;;8.05;5.22;;;;;;;11.97;89.22;100733.94;5019807;28;20048;-69
2021/05/19 07:38:18;;;;;;;8.02;5.82;;;;;;;11.94;89.93;100736.91;5034461;28;20099;-69
2021/05/19 07:41:03;;;;;;;6.65;5.82;;;;;;;11.96;91.25;100737.59;5019795;28;20049;-69
2021/05/19 07:43:47;;;;;;;10.00;5.47;;;;;;;11.89;92.63;100741.81;5019465;28;20135;-69
2021/05/19 07:46:31;;;;;;;6.47;5.60;;;;;;;11.96;91.88;100758.97;5033615;28;20182;-69
2021/05/19 07:49:15;;;;;;;7.22;5.30;;;;;;;11.88;91.68;100753.47;5033568;28;20052;-69
2021/05/19 07:51:59;;;;;;;12.80;6.55;;;;;;;11.88;92.99;100750.81;5033991;28;20125;-70
2021/05/19 07:54:43;;;;;;;7.45;6.38;;;;;;;12.08;94.28;100751.66;5019193;28;20521;-69
2021/05/19 08:03:16;;;;;;;6.78;4.90;;;;;;;12.37;86.57;100753.28;5033026;28;20095;-70
2021/05/19 08:06:00;;;;;;;7.00;4.55;;;;;;;12.19;88.12;100751.50;5033764;28;20464;-69
2021/05/19 08:08:45;;;;;;;6.85;4.22;;;;;;;12.35;87.52;100749.94;5019472;28;20068;-70
2021/05/19 08:11:28;;;;;;;5.80;3.28;;;;;;;12.34;86.67;100745.56;5018780;28;20060;-69
2021/05/19 08:14:12;;;;;;;4.80;3.67;;;;;;;12.48;86.20;100744.28;5032748;28;20056;-69
2021/05/19 08:16:57;;;;;;;5.80;4.40;;;;;;;12.63;84.81;100732.97;5019094;28;20056;-69
2021/05/19 08:19:41;;;;;;;5.53;4.45;;;;;;;13.02;84.62;100730.00;5018302;28;20084;-69
2021/05/19 08:22:25;;;;;;;7.43;4.20;;;;;;;13.03;82.95;100726.34;5033758;28;20405;-69
2021/05/19 08:25:09;;;;;;;5.53;3.85;;;;;;;13.39;83.29;100722.75;5032832;28;20099;-69
2021/05/19 08:27:53;;;;;;;6.75;3.28;;;;;;;13.18;79.07;100724.88;5032620;28;20048;-69
2021/05/19 08:30:37;;;;;;;5.05;3.33;;;;;;;13.24;77.67;100723.41;5018664;28;20103;-69
2021/05/19 08:33:21;;;;;;;4.28;3.33;;;;;;;13.33;77.74;100714.44;5018332;28;20052;-69
2021/05/19 08:36:05;;;;;;;4.82;3.65;;;;;;;13.41;76.72;100715.41;5032227;28;20052;-69
2021/05/19 08:38:49;;;;;;;5.00;3.22;;;;;;;13.49;73.41;100715.50;5032569;28;20048;-69
2021/05/19 08:41:33;;;;;;;4.90;2.78;;;;;;;13.92;74.92;100714.69;5032393;28;20056;-69
2021/05/19 08:44:24;;;;;;;4.38;2.92;;;;;;;13.98;72.20;100717.59;5032335;28;20552;-69
2021/05/19 08:47:10;;;;;;;12.75;3.53;;;;;;;13.75;74.93;100718.25;5032142;28;20044;-69
2021/05/19 08:49:54;;;;;;;5.03;3.10;;;;;;;13.99;74.77;100707.75;5032398;28;20046;-69
2021/05/19 08:52:40;;;;;;;4.57;3.33;;;;;;;14.00;73.25;100706.75;5033619;28;20102;-69
2021/05/19 08:55:25;;;;;;;4.75;3.30;;;;;;;14.12;74.58;100706.34;5032276;28;20430;-69
2021/05/19 08:58:08;;;;;;;;;;;;;;;14.24;71.84;100701.59;5032749;28;20130;-69
2021/05/19 09:00:52;;;;;;;5.50;2.90;;;;;;;14.26;72.67;100703.13;5032374;28;20432;-69
2021/05/19 09:03:36;;;;;;;3.35;2.70;;;;;;;14.75;68.94;100704.25;5032290;28;20098;-70
2021/05/19 09:06:21;;;;;;;3.28;2.47;;;;;;;15.00;68.37;100688.06;5018381;28;20048;-69
2021/05/19 09:09:27;;;;;;;4.20;3.10;;;;;;;15.24;67.45;100687.31;5018440;28;20128;-69
2021/05/19 09:12:16;;;;;;;8.85;2.90;;;;;;;15.47;66.72;100685.72;5017916;28;20048;-70
2021/05/19 09:15:04;;;;;;;3.20;2.25;;;;;;;15.65;63.90;100696.16;5031951;28;20044;-69
2021/05/19 09:17:56;;;;;;;4.43;2.20;;;;;;;15.70;63.72;100696.53;5031924;28;20052;-71
2021/05/19 09:20:51;;;;;;;4.50;2.35;;;;;;;15.77;62.54;100683.25;5018216;28;20095;-69
2021/05/19 09:23:50;;;;;;;4.60;1.50;;;;;;;16.16;61.76;100682.38;5032045;28;20467;-70
2021/05/19 09:26:34;;;;;;;1.80;1.52;;;;;;;16.34;53.91;100674.13;5032234;28;20099;-70
2021/05/19 09:29:23;;;;;;;4.10;1.60;;;;;;;16.47;55.50;100674.47;5032535;28;20126;-69
2021/05/19 09:32:10;;;;;;;3.25;1.50;;;;;;;16.84;56.52;100669.28;5021768;28;20060;-69
2021/05/19 09:34:54;;;;;;;16.83;1.95;;;;;;;16.83;54.56;100673.00;5036712;28;20426;-69
2021/05/19 09:37:38;;;;;;;3.70;2.00;;;;;;;16.64;56.94;100657.25;5035924;28;20049;-69
2021/05/19 09:40:22;;;;;;;2.63;1.65;;;;;;;17.11;57.44;100655.38;5035911;28;20079;-69
2021/05/19 09:43:06;;;;;;;4.40;1.75;;;;;;;17.14;55.88;100655.84;5036523;28;20111;-69
2021/05/19 09:46:02;;;;;;;4.95;1.60;;;;;;;17.40;52.98;100661.78;5036522;28;20048;-69
2021/05/19 09:48:47;;;;;;;4.32;1.85;;;;;;;17.69;53.55;100656.53;5022020;28;20068;-68
2021/05/19 09:51:32;;;;;;;2.10;1.65;;;;;;;17.70;51.64;100650.09;5035578;28;20516;-69
2021/05/19 09:54:32;;;;;;;3.05;1.85;;;;;;;17.11;52.76;100664.28;5035434;28;20115;-69
2021/05/19 09:57:17;;;;;;;3.35;2.15;;;;;;;16.35;53.99;100656.97;5021752;28;20500;-69
2021/05/19 10:00:02;;;;;;;3.88;1.83;;;;;;;16.65;55.58;100654.41;5035502;28;20103;-69
2021/05/19 10:02:47;;;;;;;5.45;1.75;;;;;;;16.74;54.77;100650.66;5035245;28;20061;-69
2021/05/19 10:05:36;;;;;;;3.00;1.92;;;;;;;16.91;54.94;100644.16;5036742;28;20052;-70
2021/05/19 10:08:20;;;;;;;2.88;1.85;;;;;;;17.08;54.40;100640.38;5022170;28;20410;-69
2021/05/19 10:11:05;;;;;;;2.45;1.70;;;;;;;17.37;51.71;100642.44;5035309;28;20051;-69
2021/05/19 10:13:49;;;;;;;5.80;1.88;;;;;;;18.34;48.00;100633.34;5034985;28;20508;-70
2021/05/19 10:16:33;;;;;;;3.70;1.95;;;;;;;19.08;47.29;100633.13;5035288;28;20053;-69
2021/05/19 10:19:30;;;;;;;7.22;1.70;;;;;;;19.33;45.06;100619.09;5035280;28;20417;-69
2021/05/19 10:22:15;;;;;;;2.17;1.35;;;;;;;21.23;41.06;100616.72;5021127;28;20468;-69
2021/05/19 10:27:47;;;;;;;2.75;1.27;;;;;;;24.74;31.48;100597.97;5034877;28;20084;-68
2021/05/19 10:30:46;;;;;;;2.28;1.40;;;;;;;25.71;31.30;100595.81;5034903;28;20417;-67
2021/05/19 10:33:30;;;;;;;4.13;1.30;;;;;;;26.78;29.49;100583.41;5035844;28;20099;-68
2021/05/19 10:36:29;;;;;;;;;;;;;;;25.93;29.44;100586.03;5036486;28;20179;-68
2021/05/19 10:39:16;;;;;;;5.72;2.30;;;;;;;25.17;31.64;100585.00;5035902;28;19919;-68
2021/05/19 10:42:00;;;;;;;3.47;1.67;;;;;;;25.88;29.16;100583.16;5034505;28;20099;-68
2021/05/19 10:45:01;;;;;;;5.78;1.70;;;;;;;26.55;26.78;100571.66;5034514;28;20068;-67
2021/05/19 10:47:46;;;;;;;2.95;1.20;;;;;;;26.46;27.27;100576.63;5020393;28;20406;-68
2021/05/19 10:50:36;;;;;;;2.67;1.33;;;;;;;25.15;27.10;100559.88;5034804;28;20043;-68
2021/05/19 10:59:07;;;;;;;2.03;1.80;;;;;;;27.93;25.78;100536.31;5035538;28;19924;-67
2021/05/19 11:01:55;;;;;;;3.15;1.40;;;;;;;27.05;25.06;100547.00;5020306;28;20056;-68
2021/05/19 11:04:39;;;;;;;4.20;1.50;;;;;;;26.18;26.89;100557.41;5034060;28;20052;-68
2021/05/19 11:07:22;;;;;;;;;;;;;;;24.97;28.47;100546.25;5020990;28;20171;-68
2021/05/19 11:10:25;;;;;;;4.90;1.60;;;;;;;25.42;28.45;100550.28;5019921;28;19920;-68
2021/05/19 11:13:09;;;;;;;3.70;1.63;;;;;;;26.02;27.14;100540.91;5035189;28;20517;-68
2021/05/19 11:15:58;;;;;;;4.93;3.15;;;;;;;25.54;28.42;100542.94;5034194;28;20046;-68
2021/05/19 11:21:28;;;;;;;2.35;1.30;;;;;;;24.84;28.24;100539.09;5034041;28;20044;-68
2021/05/19 11:24:13;;;;;;;5.72;1.83;;;;;;;25.73;28.13;100534.41;5033887;28;20064;-68
2021/05/19 11:26:57;;;;;;;6.18;2.05;;;;;;;26.08;27.59;100535.31;5033695;28;20115;-68
2021/05/19 11:29:43;;;;;;;;;;;;;;;25.12;26.93;100535.78;5020550;28;20049;-68
2021/05/19 11:32:29;;;;;;;4.13;1.63;;;;;;;23.74;29.03;100529.34;5033245;28;20322;-67
2021/05/19 11:35:15;;;;;;;2.58;1.40;;;;;;;23.17;30.11;100540.47;5033650;28;20044;-67
2021/05/19 11:38:03;;;;;;;2.50;1.42;;;;;;;23.64;31.13;100534.44;5033740;28;20114;-68
2021/05/19 11:40:49;;;;;;;2.90;1.35;;;;;;;25.35;28.63;100524.97;5034740;28;20060;-68
2021/05/19 11:43:36;;;;;;;1.88;1.42;;;;;;;25.94;27.72;100519.38;5034302;28;20075;-68
2021/05/19 11:46:20;;;;;;;2.03;1.30;;;;;;;26.97;26.68;100515.63;5019858;28;20052;-67
2021/05/19 11:49:11;;;;;;;4.75;1.65;;;;;;;27.28;24.85;100510.50;5019554;28;20057;-68
2021/05/19 11:51:55;;;;;;;4.18;1.50;;;;;;;27.35;26.38;100503.81;5020151;28;20056;-67
2021/05/19 11:54:41;;;;;;;1.92;1.30;;;;;;;27.81;24.26;100502.69;5019219;28;20056;-68
2021/05/19 11:57:25;;;;;;;2.28;1.15;;;;;;;26.65;24.37;100508.97;5033492;28;20048;-68
2021/05/19 12:00:09;;;;;;;;;;;;;;;26.17;26.44;100502.97;5034706;28;20094;-67
2021/05/19 12:02:54;;;;;;;;;;;;;;;26.34;26.33;100501.19;5034556;28;19919;-67
2021/05/19 12:05:56;;;;;;;2.72;1.60;;;;;;;25.86;27.42;100506.91;5018983;28;19966;-68
2021/05/19 12:08:48;;;;;;;5.22;1.60;;;;;;;25.64;27.45;100510.44;5033010;28;20087;-67
2021/05/19 12:11:35;;;;;;;4.63;1.45;;;;;;;25.46;26.57;100515.97;5032883;28;20422;-68
2021/05/19 12:14:19;;;;;;;2.00;1.25;;;;;;;25.16;27.99;100507.81;5033326;28;20406;-67
2021/05/19 12:17:04;;;;;;;2.75;1.55;;;;;;;24.04;29.02;100505.84;5033927;28;20052;-67
2021/05/19 12:19:48;;;;;;;3.55;1.50;;;;;;;23.82;29.38;100507.28;5017953;28;20090;-67
2021/05/19 12:22:32;;;;;;;;;;;;;;;23.70;30.59;100503.63;5034172;28;20095;-67
2021/05/19 12:25:16;;;;;;;3.00;1.27;;;;;;;23.59;31.79;100507.09;5033101;28;19919;-67
2021/05/19 12:28:06;;;;;;;2.70;1.30;;;;;;;23.08;31.32;100500.94;5032605;28;20080;-67
2021/05/19 12:30:52;;;;;;;5.90;1.30;;;;;;;22.32;33.10;100514.66;5019514;28;20044;-67
2021/05/19 12:33:42;;;;;;;4.28;1.52;;;;;;;22.01;33.62;100512.63;5032468;28;20417;-69
2021/05/19 12:36:31;;;;;;;3.95;1.70;;;;;;;21.78;35.64;100520.41;5019127;28;20505;-69
2021/05/19 12:39:15;;;;;;;2.97;1.27;;;;;;;20.28;36.77;100522.91;5032693;28;20084;-70
2021/05/19 12:41:59;;;;;;;3.15;1.40;;;;;;;19.51;36.99;100519.44;5033355;28;20067;-70
2021/05/19 12:44:43;;;;;;;2.35;1.13;;;;;;;18.32;42.36;100554.44;5032659;28;20052;-69
2021/05/19 12:47:27;;;;;;;4.30;1.10;;;;;;;17.85;45.17;100542.28;5032519;28;20059;-69
2021/05/19 12:50:11;;;;;;;2.75;0.98;;;;;;;17.49;47.37;100563.69;5032290;28;20084;-68
2021/05/19 12:52:57;;;;;;;2.00;0.95;;;;;;;17.38;48.40;100572.19;5018076;28;20056;-69
2021/05/19 12:55:41;;;;;;;3.70;1.00;;;;;;;17.15;48.74;100578.56;5032231;28;20047;-69
2021/05/19 12:58:25;;;;;;;1.98;1.27;;;;;;;17.04;50.34;100593.28;5018851;28;20111;-69
2021/05/19 13:01:09;;;;;;;1.85;0.95;;;;;;;17.54;48.67;100593.63;5032068;28;20044;-69
2021/05/19 13:03:54;;;;;;;1.70;1.00;;;;;;;18.29;47.02;100589.91;5031629;28;20052;-69
2021/05/19 13:06:38;;;;;;;2.20;0.80;;;;;;;17.84;47.40;100606.19;5032334;28;20056;-69
2021/05/19 13:09:28;;;;;;;4.32;0.70;;;;;;;17.48;50.47;100609.66;5033201;28;20103;-69